Time;durP1;ratioP1;P1;durP2;ratioP2;P2;SDS_P1;SDS_P2;PMS_P1;PMS_P2;Temp;Humidity;BMP_temperature;BMP_pressure;BME280_temperature;BME280_humidity;BME280_pressure;Samples;Min_cycle;Max_cycle;Signal;HPM_P1;HPM_P2
2022/12/20 00:00:51;;;;;;;134.60;53.47;;;2.10;1.00;;;;;;5053474;28;20071;-77
2022/12/20 00:03:19;;;;;;;136.95;53.65;;;2.20;99.90;;;;;;5054518;28;20467;-76
2022/12/20 00:05:49;;;;;;;127.50;52.55;;;2.20;1.00;;;;;;5054106;28;20033;-76
2022/12/20 00:08:17;;;;;;;123.95;55.05;;;2.20;99.90;;;;;;5053684;28;20059;-77
2022/12/20 00:10:46;;;;;;;123.07;55.13;;;2.20;1.00;;;;;;5051804;28;20045;-77
2022/12/20 00:13:13;;;;;;;127.07;56.13;;;2.10;94.00;;;;;;5052060;28;20040;-77
2022/12/20 00:15:41;;;;;;;127.30;58.30;;;2.20;99.90;;;;;;5054965;28;20110;-76
2022/12/20 00:18:08;;;;;;;126.38;57.63;;;2.10;1.00;;;;;;5061924;28;20070;-76
2022/12/20 00:20:36;;;;;;;133.55;60.78;;;2.20;1.00;;;;;;5056278;28;20550;-78
2022/12/20 00:23:04;;;;;;;129.15;56.33;;;2.20;28.80;;;;;;5056302;28;20041;-78
2022/12/20 00:25:31;;;;;;;125.68;54.88;;;2.30;78.70;;;;;;5069795;28;20099;-79
2022/12/20 00:28:00;;;;;;;122.85;52.03;;;2.40;36.40;;;;;;5073081;28;20063;-75
2022/12/20 00:30:27;;;;;;;119.72;50.95;;;2.40;1.00;;;;;;5058920;28;20063;-77
2022/12/20 00:32:54;;;;;;;125.53;53.85;;;2.40;99.90;;;;;;5054826;28;20255;-75
2022/12/20 00:35:22;;;;;;;119.93;54.50;;;2.30;1.00;;;;;;5071857;28;20115;-77
2022/12/20 00:37:49;;;;;;;129.25;53.35;;;2.20;1.00;;;;;;5056200;28;20492;-77
2022/12/20 00:40:18;;;;;;;127.93;54.78;;;2.30;1.00;;;;;;5049151;28;20090;-78
2022/12/20 00:42:45;;;;;;;127.97;55.47;;;2.30;1.00;;;;;;5049395;28;20037;-76
2022/12/20 00:45:13;;;;;;;123.22;54.00;;;2.30;1.00;;;;;;5048132;28;20060;-78
2022/12/20 00:47:40;;;;;;;127.45;54.65;;;2.30;1.00;;;;;;5052624;28;20045;-77
2022/12/20 00:50:08;;;;;;;122.65;52.78;;;2.30;1.00;;;;;;5054057;28;20643;-76
2022/12/20 00:52:35;;;;;;;128.85;53.80;;;2.20;1.00;;;;;;5057191;28;20067;-77
2022/12/20 00:55:04;;;;;;;125.35;54.50;;;2.20;1.00;;;;;;5055678;28;20052;-77
2022/12/20 00:57:33;;;;;;;136.23;57.05;;;2.20;1.00;;;;;;5059606;28;20108;-77
2022/12/20 01:00:00;;;;;;;125.88;55.30;;;2.10;91.60;;;;;;5052927;28;20512;-78
2022/12/20 01:02:28;;;;;;;127.85;54.08;;;2.00;99.90;;;;;;5052513;28;20029;-77
2022/12/20 01:04:55;;;;;;;137.45;58.33;;;1.90;99.90;;;;;;5052817;28;20061;-77
2022/12/20 01:07:23;;;;;;;120.25;55.47;;;1.80;1.00;;;;;;5052540;28;20111;-76
2022/12/20 01:09:51;;;;;;;131.15;60.08;;;1.80;1.00;;;;;;5057412;28;20056;-78
2022/12/20 01:12:18;;;;;;;131.35;59.78;;;1.70;1.00;;;;;;5049976;28;20488;-77
2022/12/20 01:14:47;;;;;;;126.10;58.75;;;1.70;1.00;;;;;;5049341;28;20045;-75
2022/12/20 01:17:14;;;;;;;118.60;58.15;;;1.80;99.90;;;;;;5058930;28;20037;-77
2022/12/20 01:19:43;;;;;;;130.18;58.15;;;1.90;99.90;;;;;;5060389;28;20180;-76
2022/12/20 01:22:11;;;;;;;128.27;59.92;;;2.00;1.00;;;;;;5063804;28;20045;-75
2022/12/20 01:24:38;;;;;;;133.25;58.30;;;1.90;99.90;;;;;;5061164;28;20063;-77
2022/12/20 01:27:05;;;;;;;136.55;60.60;;;1.90;99.90;;;;;;5058040;28;20045;-78
2022/12/20 01:29:33;;;;;;;131.60;60.22;;;1.90;1.00;;;;;;5060290;28;20459;-76
2022/12/20 01:32:02;;;;;;;119.80;59.63;;;1.90;1.00;;;;;;5053192;28;20037;-78
2022/12/20 01:34:30;;;;;;;127.97;60.35;;;1.90;1.00;;;;;;5068385;28;20049;-78
2022/12/20 01:36:57;;;;;;;134.45;62.17;;;1.70;1.00;;;;;;5051540;28;20056;-77
2022/12/20 01:39:24;;;;;;;126.22;59.88;;;1.70;99.90;;;;;;5053601;28;20041;-78
2022/12/20 01:41:52;;;;;;;131.07;60.58;;;1.80;82.40;;;;;;5052777;28;20079;-78
2022/12/20 01:44:57;;;;;;;133.52;61.05;;;1.80;1.00;;;;;;5052216;28;20063;-77
2022/12/20 01:47:28;;;;;;;132.93;63.00;;;1.70;1.00;;;;;;5052076;28;20120;-76
2022/12/20 01:49:59;;;;;;;130.98;62.92;;;1.70;81.90;;;;;;5051616;28;20053;-75
2022/12/20 01:52:31;;;;;;;136.25;62.15;;;1.70;99.90;;;;;;5060170;28;20037;-77
2022/12/20 01:55:05;;;;;;;139.75;60.40;;;1.70;1.00;;;;;;5055288;28;20549;-76
2022/12/20 01:57:37;;;;;;;131.57;59.00;;;1.80;1.00;;;;;;5066426;28;20091;-77
2022/12/20 02:00:07;;;;;;;134.13;60.92;;;1.90;1.00;;;;;;5058514;28;20139;-79
2022/12/20 02:02:43;;;;;;;123.03;58.38;;;1.90;1.00;;;;;;5054209;28;20065;-78
2022/12/20 02:05:13;;;;;;;126.97;60.20;;;1.80;1.00;;;;;;5055300;28;20064;-77
2022/12/20 02:07:43;;;;;;;129.70;58.33;;;1.80;1.00;;;;;;5057708;28;20045;-77
2022/12/20 02:10:12;;;;;;;129.52;58.00;;;1.90;99.90;;;;;;5071814;28;20067;-77
2022/12/20 02:12:41;;;;;;;129.02;58.88;;;1.90;1.00;;;;;;5063531;28;20055;-76
2022/12/20 02:15:31;;;;;;;116.10;55.33;;;1.90;1.00;;;;;;5054914;28;20044;-75
2022/12/20 02:18:11;;;;;;;125.13;54.20;;;2.00;1.00;;;;;;5058589;28;20544;-76
2022/12/20 02:21:08;;;;;;;129.00;56.40;;;2.00;99.90;;;;;;5055044;28;20373;-78
2022/12/20 02:23:59;;;;;;;132.23;57.80;;;2.00;1.00;;;;;;5056905;28;20099;-77
2022/12/20 02:26:57;;;;;;;119.88;53.78;;;2.00;1.00;;;;;;5053930;28;20040;-75
2022/12/20 02:29:31;;;;;;;136.68;56.08;;;2.10;1.00;;;;;;5055781;28;20103;-77
2022/12/20 02:32:03;;;;;;;124.80;52.35;;;2.20;86.70;;;;;;5055734;28;20037;-77
2022/12/20 02:34:33;;;;;;;133.15;55.33;;;2.10;1.00;;;;;;5054970;28;20045;-77
2022/12/20 02:37:01;;;;;;;137.50;56.63;;;2.10;99.90;;;;;;5055677;28;20041;-77
2022/12/20 02:39:30;;;;;;;129.77;56.50;;;2.10;99.90;;;;;;5055702;28;20048;-78
2022/12/20 02:42:04;;;;;;;133.85;56.15;;;2.00;99.90;;;;;;5056711;28;20084;-77
2022/12/20 02:47:34;;;;;;;126.50;52.97;;;2.00;99.90;;;;;;5003242;28;20122;-74
2022/12/20 02:50:03;;;;;;;122.82;52.88;;;2.00;99.90;;;;;;5045400;28;20041;-76
2022/12/20 02:52:32;;;;;;;133.32;55.20;;;2.10;99.90;;;;;;5056431;28;20041;-75
2022/12/20 02:55:01;;;;;;;134.27;56.45;;;2.10;99.90;;;;;;5058783;28;20083;-76
2022/12/20 02:57:39;;;;;;;131.43;53.35;;;2.10;13.00;;;;;;5060812;28;20064;-77
2022/12/20 03:00:10;;;;;;;126.10;54.40;;;2.00;1.00;;;;;;5056267;28;20049;-78
2022/12/20 03:05:27;;;;;;;133.05;57.75;;;1.80;99.90;;;;;;5054873;28;20076;-74
2022/12/20 03:07:54;;;;;;;136.32;56.83;;;1.80;1.00;;;;;;5059787;28;20047;-78
2022/12/20 03:10:25;;;;;;;130.10;57.28;;;1.80;1.00;;;;;;5065405;28;20045;-76
2022/12/20 03:12:52;;;;;;;127.85;55.40;;;1.80;99.90;;;;;;5058828;28;20076;-76
2022/12/20 03:15:20;;;;;;;134.45;57.00;;;1.90;99.90;;;;;;5063449;28;20500;-76
2022/12/20 03:17:53;;;;;;;129.23;55.45;;;2.00;99.90;;;;;;5057806;28;20060;-76
2022/12/20 03:20:20;;;;;;;130.60;55.15;;;2.00;1.00;;;;;;5055327;28;20044;-77
2022/12/20 03:22:48;;;;;;;131.80;54.90;;;2.10;1.00;;;;;;5056720;28;20111;-75
2022/12/20 03:25:15;;;;;;;139.57;59.03;;;2.10;1.00;;;;;;5056488;28;20484;-77
2022/12/20 03:27:43;;;;;;;135.15;55.95;;;2.10;1.00;;;;;;5056773;28;20583;-77
2022/12/20 03:30:11;;;;;;;122.85;52.75;;;2.20;1.00;;;;;;5055360;28;20156;-76
2022/12/20 03:32:38;;;;;;;126.90;56.17;;;2.20;99.90;;;;;;5055845;28;20072;-76
2022/12/20 03:35:09;;;;;;;132.00;56.53;;;2.20;59.90;;;;;;5055260;28;20072;-77
2022/12/20 03:37:39;;;;;;;127.45;55.53;;;2.00;1.00;;;;;;5059361;28;20041;-77
2022/12/20 03:40:09;;;;;;;132.20;58.17;;;1.80;99.90;;;;;;5053635;28;20073;-77
2022/12/20 03:42:36;;;;;;;129.23;58.33;;;1.80;1.00;;;;;;5070704;28;20072;-76
2022/12/20 03:45:05;;;;;;;134.32;57.45;;;1.80;66.40;;;;;;5061901;28;20051;-78
2022/12/20 03:47:33;;;;;;;124.25;56.92;;;1.70;99.90;;;;;;5073023;28;20079;-77
2022/12/20 03:50:02;;;;;;;123.25;56.25;;;1.70;1.00;;;;;;5065760;28;20056;-75
2022/12/20 03:52:35;;;;;;;122.43;55.95;;;1.80;1.00;;;;;;5053402;28;20045;-78
2022/12/20 03:55:02;;;;;;;129.25;55.65;;;1.80;99.90;;;;;;5054198;28;20045;-75
2022/12/20 03:57:38;;;;;;;120.13;54.75;;;1.80;99.90;;;;;;5054107;28;20079;-74
2022/12/20 04:00:09;;;;;;;117.18;53.08;;;1.90;99.90;;;;;;5056171;28;20138;-77
2022/12/20 04:02:41;;;;;;;118.38;52.85;;;2.00;51.20;;;;;;5057278;28;20087;-77
2022/12/20 04:05:11;;;;;;;121.45;53.67;;;2.00;1.00;;;;;;5054641;28;20056;-76
2022/12/20 04:07:40;;;;;;;127.65;53.95;;;2.00;1.00;;;;;;5049427;28;20056;-77
2022/12/20 04:10:08;;;;;;;126.65;53.35;;;2.00;1.00;;;;;;5054345;28;20033;-76
2022/12/20 04:12:36;;;;;;;121.10;52.80;;;2.10;1.00;;;;;;5055145;28;20052;-77
2022/12/20 04:15:06;;;;;;;124.72;53.15;;;2.10;99.90;;;;;;5054267;28;20067;-77
2022/12/20 04:17:35;;;;;;;125.88;54.90;;;2.10;1.00;;;;;;5054612;28;20037;-76
2022/12/20 04:20:17;;;;;;;130.45;57.25;;;2.10;12.00;;;;;;5056137;28;20057;-76
2022/12/20 04:22:50;;;;;;;123.60;56.03;;;2.00;99.90;;;;;;5072601;28;20112;-77
2022/12/20 04:25:19;;;;;;;124.22;54.35;;;2.00;99.90;;;;;;5054362;28;20051;-77
2022/12/20 04:27:47;;;;;;;131.10;55.58;;;2.00;1.00;;;;;;5072521;28;20049;-77
2022/12/20 04:30:15;;;;;;;119.93;51.88;;;1.80;1.00;;;;;;5072714;28;20683;-78
2022/12/20 04:32:42;;;;;;;118.90;54.15;;;1.80;1.00;;;;;;5056680;28;20048;-77
2022/12/20 04:35:11;;;;;;;130.60;56.95;;;1.80;99.90;;;;;;5071497;28;20063;-78
2022/12/20 04:37:42;;;;;;;131.20;57.63;;;1.90;40.10;;;;;;5054129;28;20535;-78
2022/12/20 04:40:12;;;;;;;121.55;53.13;;;1.90;1.00;;;;;;5058603;28;20041;-78
2022/12/20 04:42:53;;;;;;;128.02;53.83;;;1.90;1.00;;;;;;5051887;28;20048;-76
2022/12/20 04:45:21;;;;;;;120.30;54.55;;;1.90;1.00;;;;;;5050964;28;20072;-75
2022/12/20 04:47:49;;;;;;;130.23;57.45;;;1.90;1.00;;;;;;5057968;28;20503;-74
2022/12/20 04:50:21;;;;;;;138.35;61.47;;;1.80;1.00;;;;;;5057929;28;20045;-74
2022/12/20 04:55:39;;;;;;;149.23;60.78;;;1.80;1.00;;;;;;5055940;28;20059;-74
2022/12/20 04:58:07;;;;;;;134.65;62.20;;;1.80;1.00;;;;;;5060537;28;20314;-77
2022/12/20 05:00:36;;;;;;;140.38;63.70;;;1.60;1.00;;;;;;5062577;28;20542;-77
2022/12/20 05:03:13;;;;;;;139.82;65.95;;;1.60;99.90;;;;;;5058647;28;20047;-77
2022/12/20 05:05:40;;;;;;;142.48;66.65;;;1.70;99.90;;;;;;5068472;28;20036;-77
2022/12/20 05:08:07;;;;;;;131.95;62.55;;;1.60;1.00;;;;;;5066087;28;20111;-76
2022/12/20 05:10:39;;;;;;;133.38;62.30;;;1.60;99.90;;;;;;5063295;28;20041;-76
2022/12/20 05:13:06;;;;;;;128.20;60.70;;;1.60;99.90;;;;;;5063732;28;20080;-79
2022/12/20 05:15:39;;;;;;;132.55;61.67;;;1.60;99.90;;;;;;5059124;28;20140;-75
2022/12/20 05:18:07;;;;;;;126.35;61.75;;;1.70;99.90;;;;;;5061963;28;20059;-76
2022/12/20 05:26:36;;;;;;;123.53;59.53;;;1.70;1.00;;;;;;5064590;28;20041;-76
2022/12/20 05:29:05;;;;;;;128.93;59.65;;;1.70;1.00;;;;;;5055346;28;20581;-75
2022/12/20 05:31:33;;;;;;;137.57;62.85;;;1.60;1.00;;;;;;5053412;28;20129;-75
2022/12/20 05:34:02;;;;;;;144.25;68.57;;;1.60;1.00;;;;;;5053646;28;20115;-75
2022/12/20 05:36:33;;;;;;;135.48;64.85;;;1.50;99.90;;;;;;5053807;28;20049;-79
2022/12/20 05:39:03;;;;;;;114.28;54.42;;;1.60;1.00;;;;;;5051808;28;20033;-76
2022/12/20 05:41:32;;;;;;;118.95;56.22;;;1.60;1.00;;;;;;5050285;28;20404;-77
2022/12/20 05:44:00;;;;;;;119.85;54.65;;;1.40;99.90;;;;;;5050485;28;20041;-74
2022/12/20 05:46:32;;;;;;;122.50;58.78;;;1.40;99.90;;;;;;5048912;28;20524;-77
2022/12/20 05:49:03;;;;;;;112.82;56.35;;;1.30;1.00;;;;;;5050692;28;20098;-77
2022/12/20 05:51:31;;;;;;;119.25;55.20;;;1.40;99.90;;;;;;5052669;28;20087;-77
2022/12/20 05:54:12;;;;;;;120.10;55.30;;;1.50;99.90;;;;;;5067942;28;20039;-77
2022/12/20 05:56:54;;;;;;;121.55;55.92;;;1.40;1.00;;;;;;5048996;28;20128;-78
2022/12/20 05:59:27;;;;;;;122.63;55.75;;;1.50;1.00;;;;;;5049713;28;20056;-79
2022/12/20 06:01:55;;;;;;;119.00;53.55;;;1.60;1.00;;;;;;5066301;28;20049;-77
2022/12/20 06:04:24;;;;;;;116.20;52.40;;;1.60;1.00;;;;;;5049172;28;20585;-78
2022/12/20 06:06:53;;;;;;;114.55;52.60;;;1.60;1.00;;;;;;5049118;28;20076;-76
2022/12/20 06:09:20;;;;;;;126.20;54.60;;;1.70;99.90;;;;;;5050798;28;20083;-76
2022/12/20 06:12:00;;;;;;;129.82;53.53;;;1.70;99.90;;;;;;5054015;28;20052;-77
2022/12/20 06:14:29;;;;;;;137.23;56.95;;;1.70;47.10;;;;;;5071237;28;20048;-76
2022/12/20 06:16:57;;;;;;;138.18;57.45;;;1.70;80.80;;;;;;5052027;28;20048;-77
2022/12/20 06:19:25;;;;;;;135.70;53.97;;;1.70;98.80;;;;;;5050660;28;20080;-78
2022/12/20 06:21:54;;;;;;;120.90;50.15;;;1.70;98.90;;;;;;5050084;28;20049;-77
2022/12/20 06:24:30;;;;;;;122.75;53.00;;;1.70;99.90;;;;;;5049250;28;20049;-79
2022/12/20 06:26:59;;;;;;;124.20;52.65;;;1.70;99.90;;;;;;5048706;28;20072;-78
2022/12/20 06:29:30;;;;;;;131.30;54.40;;;1.70;99.90;;;;;;5049087;28;20048;-76
2022/12/20 06:32:08;;;;;;;135.55;57.72;;;1.80;1.00;;;;;;5049973;28;20049;-75
2022/12/20 06:34:35;;;;;;;141.77;58.75;;;1.80;99.90;;;;;;5059193;28;20508;-77
2022/12/20 06:37:03;;;;;;;148.90;61.30;;;1.80;1.00;;;;;;5052319;28;20041;-77
2022/12/20 06:39:33;;;;;;;142.90;61.00;;;1.70;1.00;;;;;;5050202;28;20045;-76
2022/12/20 06:42:08;;;;;;;150.10;61.08;;;1.70;72.50;;;;;;5049543;28;20103;-77
2022/12/20 06:44:37;;;;;;;156.18;66.70;;;1.70;99.90;;;;;;5050974;28;20045;-75
2022/12/20 06:47:04;;;;;;;158.80;64.43;;;1.50;1.00;;;;;;5062470;28;20071;-77
2022/12/20 06:49:33;;;;;;;154.48;64.25;;;1.50;99.90;;;;;;5067056;28;20056;-78
2022/12/20 06:52:02;;;;;;;158.80;65.47;;;1.50;1.00;;;;;;5067038;28;20041;-77
2022/12/20 06:54:40;;;;;;;162.18;65.95;;;1.60;1.00;;;;;;5072420;28;20041;-79
2022/12/20 06:57:09;;;;;;;162.50;65.28;;;1.70;1.00;;;;;;5052384;28;20149;-78
2022/12/20 06:59:38;;;;;;;154.15;64.60;;;1.80;1.00;;;;;;5052881;28;20139;-77
2022/12/20 07:02:05;;;;;;;162.68;72.60;;;1.80;99.90;;;;;;5054343;28;20053;-73
2022/12/20 07:04:32;;;;;;;158.57;65.57;;;1.80;11.40;;;;;;5059937;28;20567;-77
2022/12/20 07:07:00;;;;;;;156.48;65.63;;;1.80;99.90;;;;;;5070478;28;20053;-74
2022/12/20 07:09:27;;;;;;;160.95;64.35;;;1.80;1.00;;;;;;5077360;28;20045;-75
2022/12/20 07:11:54;;;;;;;159.23;66.63;;;1.70;1.00;;;;;;5060369;28;20533;-77
2022/12/20 07:14:23;;;;;;;181.50;73.40;;;1.70;99.90;;;;;;5049535;28;20404;-78
2022/12/20 07:16:51;;;;;;;149.60;66.38;;;1.80;99.90;;;;;;5048868;28;20033;-77
2022/12/20 07:19:18;;;;;;;158.13;65.03;;;1.80;76.00;;;;;;5053209;28;20041;-77
2022/12/20 07:21:47;;;;;;;160.18;68.97;;;1.80;1.00;;;;;;5052652;28;20086;-78
2022/12/20 07:24:14;;;;;;;156.48;66.65;;;1.90;1.00;;;;;;5054020;28;20037;-77
2022/12/20 07:26:41;;;;;;;149.10;61.75;;;1.70;1.00;;;;;;5050335;28;20041;-76
2022/12/20 07:29:08;;;;;;;154.65;65.93;;;1.70;1.00;;;;;;5054614;28;20052;-76
2022/12/20 07:31:37;;;;;;;159.07;66.70;;;1.80;1.00;;;;;;5055232;28;20055;-78
2022/12/20 07:34:04;;;;;;;149.40;64.60;;;1.80;1.00;;;;;;5051955;28;20400;-78
2022/12/20 07:36:32;;;;;;;156.82;65.15;;;1.90;99.90;;;;;;5052499;28;20041;-78
2022/12/20 07:38:59;;;;;;;153.60;66.95;;;1.80;1.00;;;;;;5061218;28;20060;-77
2022/12/20 07:41:26;;;;;;;148.73;67.65;;;1.80;99.90;;;;;;5076117;28;20052;-79
2022/12/20 07:43:54;;;;;;;151.02;68.25;;;1.80;99.90;;;;;;5052178;28;20103;-77
2022/12/20 07:46:21;;;;;;;155.90;71.70;;;1.80;1.00;;;;;;5057734;28;20041;-76
2022/12/20 07:48:50;;;;;;;160.55;67.63;;;1.90;99.90;;;;;;5057161;28;20045;-76
2022/12/20 07:51:21;;;;;;;154.25;67.82;;;1.80;1.00;;;;;;5059781;28;20071;-76
2022/12/20 07:53:52;;;;;;;161.57;71.82;;;1.80;1.00;;;;;;5058633;28;20052;-77
2022/12/20 07:56:22;;;;;;;154.93;69.75;;;1.80;1.00;;;;;;5052575;28;20044;-78
2022/12/20 07:58:51;;;;;;;147.52;68.93;;;1.90;99.90;;;;;;5052188;28;20041;-76
2022/12/20 08:01:20;;;;;;;165.93;75.53;;;1.90;1.00;;;;;;5051512;28;20041;-79
2022/12/20 08:03:53;;;;;;;146.48;69.20;;;2.00;1.00;;;;;;5052791;28;20045;-77
2022/12/20 08:06:21;;;;;;;163.55;73.03;;;2.00;1.00;;;;;;5051425;28;20044;-79
2022/12/20 08:08:51;;;;;;;161.02;72.38;;;2.10;99.90;;;;;;5050936;28;20045;-79
2022/12/20 08:11:20;;;;;;;155.60;68.40;;;2.20;99.90;;;;;;5052661;28;20103;-74
2022/12/20 08:13:52;;;;;;;153.20;66.82;;;2.10;1.00;;;;;;5053742;28;20044;-72
2022/12/20 08:16:19;;;;;;;157.88;68.28;;;2.00;99.90;;;;;;5079538;28;20053;-76
2022/12/20 08:18:46;;;;;;;155.10;68.30;;;2.10;1.00;;;;;;5063592;28;20041;-75
2022/12/20 08:21:15;;;;;;;149.57;67.88;;;2.20;1.00;;;;;;5062613;28;20102;-78
2022/12/20 08:23:43;;;;;;;139.48;58.70;;;2.30;11.10;;;;;;5053409;28;20045;-78
2022/12/20 08:26:11;;;;;;;135.43;58.20;;;2.30;1.00;;;;;;5050189;28;20095;-79
2022/12/20 08:28:38;;;;;;;144.93;61.78;;;2.40;1.00;;;;;;5053938;28;20041;-77
2022/12/20 08:31:07;;;;;;;150.90;63.88;;;2.50;1.00;;;;;;5052180;28;20563;-78
2022/12/20 08:33:36;;;;;;;159.13;67.03;;;2.50;99.90;;;;;;5053347;28;20044;-77
2022/12/20 08:36:06;;;;;;;153.82;64.28;;;2.40;99.90;;;;;;5053883;28;20088;-77
2022/12/20 08:38:35;;;;;;;144.55;62.00;;;2.40;1.00;;;;;;5057715;28;20103;-77
2022/12/20 08:41:03;;;;;;;145.70;61.53;;;2.50;1.00;;;;;;5054226;28;20098;-77
2022/12/20 08:43:33;;;;;;;145.63;62.72;;;2.50;1.00;;;;;;5066677;28;20053;-77
2022/12/20 08:46:00;;;;;;;157.38;67.75;;;2.60;99.90;;;;;;5051260;28;20500;-75
2022/12/20 08:48:28;;;;;;;149.65;66.30;;;2.60;99.90;;;;;;5052011;28;20373;-76
2022/12/20 08:50:57;;;;;;;146.98;68.20;;;2.70;43.40;;;;;;5051182;28;20049;-78
2022/12/20 08:53:24;;;;;;;148.55;68.85;;;2.80;39.80;;;;;;5063471;28;20068;-76
2022/12/20 08:55:54;;;;;;;148.88;64.60;;;2.80;1.00;;;;;;5061805;28;20045;-77
2022/12/20 08:58:22;;;;;;;148.52;63.78;;;2.80;1.00;;;;;;5050864;28;20076;-78
2022/12/20 09:00:49;;;;;;;149.98;66.68;;;3.00;1.00;;;;;;5052424;28;20052;-77
2022/12/20 09:03:16;;;;;;;145.85;65.20;;;3.00;1.00;;;;;;5050877;28;20107;-77
2022/12/20 09:05:46;;;;;;;153.48;65.60;;;2.90;1.00;;;;;;5057041;28;20049;-77
2022/12/20 09:08:15;;;;;;;145.02;66.82;;;2.70;1.00;;;;;;5070568;28;20033;-73
2022/12/20 09:10:43;;;;;;;134.40;59.00;;;2.80;1.00;;;;;;5054904;28;20036;-75
2022/12/20 09:13:12;;;;;;;136.23;62.00;;;2.70;1.00;;;;;;5058230;28;20049;-79
2022/12/20 09:15:39;;;;;;;126.15;58.90;;;2.70;1.00;;;;;;5053173;28;20048;-79
2022/12/20 09:18:06;;;;;;;124.85;58.78;;;2.80;1.00;;;;;;5052373;28;20099;-79
2022/12/20 09:20:35;;;;;;;120.63;55.63;;;2.80;1.00;;;;;;5051605;28;20138;-78
2022/12/20 09:23:02;;;;;;;133.68;57.95;;;2.80;1.00;;;;;;5050053;28;20123;-78
2022/12/20 09:25:29;;;;;;;137.00;61.92;;;2.70;1.00;;;;;;5051489;28;20454;-78
2022/12/20 09:27:56;;;;;;;144.00;64.05;;;2.60;1.00;;;;;;5050823;28;20040;-77
2022/12/20 09:30:25;;;;;;;146.13;62.95;;;2.70;1.00;;;;;;5051468;28;20123;-77
2022/12/20 09:32:52;;;;;;;136.48;58.60;;;2.80;1.00;;;;;;5049988;28;20037;-78
2022/12/20 09:35:20;;;;;;;133.25;60.10;;;2.80;1.00;;;;;;5050741;28;20045;-78
2022/12/20 09:37:47;;;;;;;134.90;60.60;;;2.90;1.00;;;;;;5052082;28;20106;-75
2022/12/20 09:40:19;;;;;;;136.40;64.55;;;3.00;1.00;;;;;;5050878;28;20041;-76
2022/12/20 09:42:48;;;;;;;139.13;63.83;;;2.90;1.00;;;;;;5050563;28;20320;-79
2022/12/20 09:45:25;;;;;;;132.40;62.20;;;3.00;1.00;;;;;;5050201;28;20115;-79
2022/12/20 09:47:54;;;;;;;119.47;58.65;;;3.10;1.00;;;;;;5050310;28;20070;-79
2022/12/20 09:50:28;;;;;;;122.32;58.78;;;3.20;99.90;;;;;;5049212;28;20048;-77
2022/12/20 09:53:09;;;;;;;117.20;56.58;;;3.10;99.90;;;;;;5050264;28;20033;-79
2022/12/20 09:55:43;;;;;;;124.07;58.90;;;3.30;99.90;;;;;;5049975;28;20107;-78
2022/12/20 09:58:27;;;;;;;126.93;57.75;;;3.30;1.00;;;;;;5065630;28;20044;-77
2022/12/20 10:00:56;;;;;;;131.95;60.75;;;3.30;1.00;;;;;;5051338;28;20506;-77
2022/12/20 10:03:29;;;;;;;130.75;60.72;;;3.40;1.00;;;;;;5050992;28;20037;-78
2022/12/20 10:05:58;;;;;;;133.65;64.45;;;3.50;1.00;;;;;;5053995;28;20060;-78
2022/12/20 10:08:43;;;;;;;131.50;61.67;;;3.70;1.00;;;;;;5054112;28;20037;-76
2022/12/20 10:11:26;;;;;;;128.15;61.03;;;3.60;1.00;;;;;;5057385;28;20033;-76
2022/12/20 10:14:02;;;;;;;141.93;66.32;;;3.70;1.00;;;;;;5050673;28;20056;-79
2022/12/20 10:16:37;;;;;;;;;;;3.70;1.00;;;;;;5050053;28;20041;-78
2022/12/20 10:19:33;;;;;;;148.88;70.55;;;3.50;1.00;;;;;;5049983;28;20372;-78
2022/12/20 10:22:09;;;;;;;143.77;70.93;;;3.60;1.00;;;;;;5036957;28;20056;-76
2022/12/20 10:24:38;;;;;;;147.13;71.57;;;3.50;1.00;;;;;;5055719;28;20094;-77
2022/12/20 10:27:14;;;;;;;143.75;69.72;;;3.60;1.00;;;;;;5061407;28;20090;-78
2022/12/20 10:29:41;;;;;;;140.63;69.60;;;3.60;1.00;;;;;;5071206;28;20091;-76
2022/12/20 10:32:14;;;;;;;148.75;74.22;;;3.70;1.00;;;;;;5069123;28;20045;-77
2022/12/20 10:34:51;;;;;;;145.32;69.03;;;3.70;1.00;;;;;;5070020;28;20082;-78
2022/12/20 10:37:18;;;;;;;139.73;66.75;;;3.80;1.00;;;;;;5063810;28;20036;-77
2022/12/20 10:39:49;;;;;;;139.57;66.50;;;3.90;1.00;;;;;;5063267;28;20124;-77
2022/12/20 10:42:30;;;;;;;142.10;68.38;;;4.00;1.00;;;;;;5059970;28;20036;-76
2022/12/20 10:44:58;;;;;;;143.60;66.82;;;4.00;1.00;;;;;;5062670;28;20714;-76
2022/12/20 10:47:37;;;;;;;149.95;67.97;;;3.90;1.00;;;;;;5055474;28;20427;-76
2022/12/20 10:50:15;;;;;;;150.77;73.53;;;3.70;1.00;;;;;;5058629;28;20347;-74
2022/12/20 10:52:43;;;;;;;146.15;71.93;;;3.50;1.00;;;;;;5059175;28;20045;-77
2022/12/20 10:55:35;;;;;;;155.27;76.18;;;3.30;99.90;;;;;;5055671;28;20507;-77
2022/12/20 10:58:04;;;;;;;157.68;77.70;;;3.10;1.00;;;;;;5051362;28;20092;-81
2022/12/20 11:00:34;;;;;;;156.85;79.47;;;3.20;1.00;;;;;;5052810;28;20033;-77
2022/12/20 11:03:12;;;;;;;156.40;77.40;;;3.40;1.00;;;;;;5052991;28;20047;-75
2022/12/20 11:05:41;;;;;;;174.95;82.97;;;3.50;1.00;;;;;;5054665;28;20037;-75
2022/12/20 11:08:17;;;;;;;167.75;80.55;;;3.60;1.00;;;;;;5052644;28;20040;-75
2022/12/20 11:10:45;;;;;;;150.02;75.95;;;3.60;99.90;;;;;;5054886;28;20119;-77
2022/12/20 11:13:22;;;;;;;157.30;79.45;;;3.50;99.90;;;;;;5053493;28;20128;-74
2022/12/20 11:15:53;;;;;;;167.35;80.35;;;3.40;1.00;;;;;;5054725;28;20087;-77
2022/12/20 11:18:30;;;;;;;165.20;83.50;;;3.60;1.00;;;;;;5054474;28;20122;-76
2022/12/20 11:21:11;;;;;;;164.10;81.13;;;3.90;1.00;;;;;;5054306;28;20134;-77
2022/12/20 11:23:41;;;;;;;155.02;78.53;;;4.10;99.90;;;;;;5052681;28;20542;-78
2022/12/20 11:26:22;;;;;;;153.25;77.30;;;4.30;1.00;;;;;;5053158;28;20045;-77
2022/12/20 11:29:03;;;;;;;156.43;75.65;;;4.40;1.00;;;;;;5065127;28;20041;-76
2022/12/20 11:31:41;;;;;;;145.80;70.00;;;4.50;1.00;;;;;;5064103;28;20049;-77
2022/12/20 11:34:19;;;;;;;144.25;71.03;;;4.70;1.00;;;;;;5051021;28;20045;-79
2022/12/20 11:37:04;;;;;;;151.38;74.90;;;4.80;99.90;;;;;;5053414;28;20048;-75
2022/12/20 11:39:39;;;;;;;130.70;67.22;;;4.90;99.90;;;;;;5053397;28;20041;-76
2022/12/20 11:42:16;;;;;;;136.05;65.68;;;5.00;99.90;;;;;;5054393;28;20067;-74
2022/12/20 11:44:57;;;;;;;125.30;63.53;;;5.00;12.40;;;;;;5054583;28;20079;-78
2022/12/20 11:47:54;;;;;;;127.20;66.55;;;5.10;1.00;;;;;;5053421;28;20083;-76
2022/12/20 11:50:34;;;;;;;;;;;5.20;1.00;;;;;;5055093;28;20037;-73
2022/12/20 11:53:08;;;;;;;117.03;60.95;;;5.40;1.00;;;;;;5065383;28;19924;-72
2022/12/20 11:55:40;;;;;;;107.53;57.22;;;5.50;1.00;;;;;;5069119;28;20052;-74
2022/12/20 11:58:14;;;;;;;112.47;60.80;;;5.60;1.00;;;;;;5063756;28;20156;-75
2022/12/20 12:00:49;;;;;;;125.70;66.75;;;5.70;1.00;;;;;;5063829;28;20056;-75
2022/12/20 12:03:23;;;;;;;137.70;70.60;;;5.70;1.00;;;;;;5067223;28;20041;-75
2022/12/20 12:05:53;;;;;;;134.00;67.28;;;5.80;1.00;;;;;;5068184;28;20049;-75
2022/12/20 12:08:25;;;;;;;126.97;67.78;;;5.80;1.00;;;;;;5055093;28;20045;-77
2022/12/20 12:10:58;;;;;;;129.20;66.68;;;5.80;1.00;;;;;;5055550;28;20033;-76
2022/12/20 12:13:30;;;;;;;127.80;67.65;;;5.80;1.00;;;;;;5058506;28;20052;-75
2022/12/20 12:16:06;;;;;;;135.85;68.80;;;5.70;1.00;;;;;;5062856;28;20109;-76
2022/12/20 12:18:35;;;;;;;141.95;73.28;;;5.80;1.00;;;;;;5065345;28;20075;-77
2022/12/20 12:21:11;;;;;;;131.55;71.05;;;5.90;1.00;;;;;;5057905;28;20063;-75
2022/12/20 12:23:44;;;;;;;;;;;6.10;1.00;;;;;;5057152;28;20049;-78
2022/12/20 12:26:18;;;;;;;140.75;74.80;;;6.20;1.00;;;;;;5055328;28;19936;-75
2022/12/20 12:28:49;;;;;;;162.15;82.18;;;6.20;1.00;;;;;;5060688;28;20067;-77
2022/12/20 12:31:22;;;;;;;166.10;83.43;;;6.30;1.00;;;;;;5057156;28;20492;-75
2022/12/20 12:34:07;;;;;;;166.02;86.18;;;6.20;1.00;;;;;;5052497;28;20082;-78
2022/12/20 12:37:03;;;;;;;163.27;83.05;;;6.30;1.00;;;;;;5051533;28;20036;-78
2022/12/20 12:40:04;;;;;;;160.33;81.77;;;6.30;1.00;;;;;;5053478;28;20045;-77
2022/12/20 12:43:02;;;;;;;160.50;82.10;;;6.30;1.00;;;;;;5051054;28;20037;-74
2022/12/20 12:45:34;;;;;;;158.20;81.55;;;6.30;1.00;;;;;;5050640;28;20037;-79
2022/12/20 12:48:06;;;;;;;158.85;83.57;;;6.40;1.00;;;;;;5050536;28;20059;-77
2022/12/20 12:50:37;;;;;;;154.75;83.60;;;6.50;1.00;;;;;;5051817;28;20056;-76
2022/12/20 12:53:08;;;;;;;161.73;85.68;;;6.60;1.00;;;;;;5051775;28;20037;-77
2022/12/20 12:55:47;;;;;;;167.30;88.25;;;6.70;1.00;;;;;;5052100;28;20045;-77
2022/12/20 12:58:33;;;;;;;165.85;89.18;;;6.70;1.00;;;;;;5050735;28;20053;-75
2022/12/20 13:01:03;;;;;;;179.90;93.22;;;6.80;1.00;;;;;;5052959;28;20198;-76
2022/12/20 13:03:44;;;;;;;170.68;88.47;;;6.80;1.00;;;;;;5061473;28;20136;-76
2022/12/20 13:06:53;;;;;;;173.13;88.75;;;6.90;1.00;;;;;;5053727;28;20092;-76
2022/12/20 13:09:36;;;;;;;167.52;87.45;;;6.90;1.00;;;;;;5051050;28;20044;-78
2022/12/20 13:12:48;;;;;;;168.43;87.28;;;6.90;1.00;;;;;;5049928;28;20443;-78